Latest Weather Observations for Mount Buller

IDV60801

Issued at 5:31 pm EST Sunday 29 May 2016 (issued every 30 minutes, with the page automatically refreshed every 10 minutes)

About weather observations | Map of weather stations | Latest weather observations for VIC | Other Formats
Station Details ID: 083024 Name: MOUNT BULLER Lat: -37.15 Lon: 146.44 Height: 1707.0 m
Data from the previous 72 hours. | See also: Recent months at Mount Buller
Date/Time
EST
Temp
°C
App
Temp
°C
Dew
Point
Rel
Hum
%
Delta-T
°C
Wind Press
QNH
hPa
Press
MSL
hPa
Rain
since 9 am
mm
Dir
 
Spd
km/h
Gust
km/h
Spd
kts
Gust
kts
29/05:30pm -2.1 -6.9 -2.2 99 -0.1 S 13 17 7 9 - - 0.0
29/05:00pm -1.8 -6.9 -1.9 99 -0.1 SSW 15 19 8 10 - - 0.0
29/04:30pm -1.3 -6.3 -1.4 99 0.0 S 15 19 8 10 - - 0.0
29/04:00pm -1.2 -6.6 -1.3 99 0.0 SW 17 20 9 11 - - 0.0
29/03:30pm -1.1 -6.1 -1.2 99 0.0 SW 15 19 8 10 - - 0.0
29/03:00pm -1.0 -5.6 -1.1 99 0.0 SW 13 19 7 10 - - 0.0
29/02:30pm -0.8 -5.4 -0.9 99 0.0 SW 13 19 7 10 - - 0.0
29/02:00pm -0.8 -5.8 -0.9 99 0.0 SW 15 20 8 11 - - 0.0
29/01:30pm -0.4 -5.7 -0.5 99 0.0 SW 17 24 9 13 - - 0.0
29/01:00pm -0.7 -6.0 -0.8 99 0.0 SW 17 24 9 13 - - 0.0
29/12:30pm -0.7 -6.0 -0.8 99 0.0 SW 17 24 9 13 - - 0.0
29/12:00pm -0.6 -5.5 -0.7 99 0.0 SW 15 20 8 11 - - 0.0
29/11:30am -0.6 -5.9 -0.7 99 0.0 WSW 17 24 9 13 - - 0.0
29/11:00am -0.9 -5.1 -1.0 99 0.0 SW 11 19 6 10 - - 0.0
29/10:30am -1.2 -6.2 -1.3 99 0.0 SSW 15 20 8 11 - - 0.0
29/10:00am -1.4 -7.2 -1.5 99 0.0 SSW 19 26 10 14 - - 0.0
29/09:30am -1.7 -7.5 -1.8 99 0.0 S 19 24 10 13 - - 0.0
29/09:00am -1.8 -7.7 -1.9 99 -0.1 SSW 19 26 10 14 - - 1.6
29/08:30am -2.2 -9.1 -2.3 99 -0.1 SSW 24 32 13 17 - - 1.6
29/08:00am -2.0 -8.8 -2.1 99 -0.1 SSW 24 35 13 19 - - 1.6
29/07:30am -2.1 -9.7 -2.2 99 -0.1 SSW 28 37 15 20 - - 1.6
29/07:00am -2.1 -9.3 -2.2 99 -0.1 SSW 26 37 14 20 - - 1.6
29/06:30am -2.0 -10.0 -2.1 99 -0.1 SSW 30 41 16 22 - - 1.6
29/06:00am -2.0 -10.0 -2.1 99 -0.1 SSW 30 43 16 23 - - 1.6
29/05:30am -2.1 -9.3 -2.2 99 -0.1 SSW 26 37 14 20 - - 1.6
29/05:00am -2.1 -9.3 -2.2 99 -0.1 SSW 26 35 14 19 - - 1.6
29/04:30am -2.0 -9.2 -2.1 99 -0.1 SSW 26 37 14 20 - - 1.6
29/04:00am -2.0 -8.8 -2.1 99 -0.1 SSW 24 35 13 19 - - 1.6
29/03:30am -2.0 -8.8 -2.1 99 -0.1 SSW 24 33 13 18 - - 1.6
29/03:00am -2.2 -9.1 -2.3 99 -0.1 SSW 24 35 13 19 - - 1.6
29/02:30am -2.2 -9.1 -2.3 99 -0.1 SSW 24 35 13 19 - - 1.6
29/02:00am -2.1 -9.3 -2.2 99 -0.1 SSW 26 35 14 19 - - 1.6
29/01:30am -2.1 -9.3 -2.2 99 -0.1 SSW 26 33 14 18 - - 1.6
29/01:00am -2.3 -10.3 -2.4 99 -0.1 SSW 30 37 16 20 - - 1.6
29/12:30am -2.5 -10.5 -2.6 99 -0.1 SSW 30 44 16 24 - - 1.6
29/12:00am -2.7 -11.3 -2.8 99 -0.1 SSW 33 43 18 23 - - 1.6
 
Date/Time
EST
Temp
°C
App
Temp
°C
Dew
Point
Rel
Hum
%
Delta-T
°C
Wind Press
QNH
hPa
Press
MSL
hPa
Rain
since 9 am
mm
Dir
 
Spd
km/h
Gust
km/h
Spd
kts
Gust
kts
28/11:30pm -2.3 -11.3 -2.4 99 -0.1 SW 35 48 19 26 - - 1.6
28/11:00pm -1.8 -10.3 -1.9 99 -0.1 SW 33 48 18 26 - - 1.6
28/10:30pm -1.4 -9.3 -1.5 99 0.0 SSW 30 46 16 25 - - 1.6
28/10:00pm -1.0 -8.1 -1.1 99 0.0 SSW 26 35 14 19 - - 1.0
28/09:30pm -1.2 -8.7 -1.3 99 0.0 SSW 28 39 15 21 - - 1.0
28/09:11pm -1.1 -9.3 -1.2 99 0.0 SSW 32 50 17 27 - - 0.8
28/09:00pm -1.0 -9.2 -1.1 99 0.0 SSW 32 44 17 24 - - 0.8
28/08:30pm -1.3 -8.0 -1.4 99 0.0 SSW 24 35 13 19 - - 0.6
28/08:00pm -1.3 -8.0 -1.4 99 0.0 SSW 24 32 13 17 - - 0.6
28/07:30pm -1.3 -8.8 -1.4 99 0.0 SSW 28 35 15 19 - - 0.2
28/07:00pm -1.4 -9.9 -1.5 99 0.0 SSW 33 46 18 25 - - 0.2
28/06:30pm -1.6 -10.1 -1.7 99 0.0 SSW 33 48 18 26 - - 0.2
28/06:00pm -1.6 -9.9 -1.7 99 0.0 SSW 32 44 17 24 - - 0.2
28/05:30pm -1.4 -8.5 -1.5 99 0.0 SSW 26 41 14 22 - - 0.2
28/05:00pm -1.2 -9.1 -1.3 99 0.0 SSW 30 41 16 22 - - 0.2
28/04:30pm -1.2 -7.9 -1.3 99 0.0 S 24 33 13 18 - - 0.0
28/04:00pm -1.1 -9.5 -1.2 99 0.0 SSW 33 44 18 24 - - 0.0
28/03:48pm -1.3 -8.8 -1.4 99 0.0 SSW 28 48 15 26 - - 0.0
28/03:30pm -0.6 -8.0 -0.7 99 0.0 S 28 37 15 20 - - 0.0
28/03:00pm -0.3 -6.0 -0.4 99 0.0 SSW 19 28 10 15 - - 0.0
28/02:30pm -0.4 -6.3 -0.5 99 0.0 S 20 32 11 17 - - 0.0
28/02:00pm -0.5 -6.7 -0.6 99 0.0 S 22 32 12 17 - - 0.0
28/01:30pm -0.6 -8.0 -0.9 98 0.1 S 28 37 15 20 - - 0.0
28/01:00pm -0.4 -7.0 -0.7 98 0.1 S 24 37 13 20 - - 0.0
28/12:30pm -0.1 -6.0 -0.5 97 0.2 SSW 20 26 11 14 - - 0.0
28/12:00pm -0.3 -6.9 -0.7 97 0.1 S 24 30 13 16 - - 0.0
28/11:30am -0.5 -7.2 -0.8 98 0.1 S 24 28 13 15 - - 0.0
28/11:00am -0.8 -8.3 -1.2 97 0.1 S 28 33 15 18 - - 0.0
28/10:30am -1.2 -9.1 -1.5 98 0.1 S 30 35 16 19 - - 0.0
28/10:00am -1.5 -9.4 -1.9 97 0.1 S 30 37 16 20 - - 0.0
28/09:30am -1.8 -9.1 -2.6 94 0.2 S 26 32 14 17 - - 0.0
28/09:00am -2.3 -8.4 -4.3 86 0.6 S 19 26 10 14 - - 1.4
28/08:30am -2.5 -8.3 -5.1 82 0.8 S 17 26 9 14 - - 1.4
28/08:00am -3.0 -9.3 -5.8 81 0.8 S 19 24 10 13 - - 1.4
28/07:30am -4.0 -10.5 -6.4 83 0.6 S 20 28 11 15 - - 1.4
28/07:00am -3.9 -10.3 -6.4 83 0.7 SSW 19 22 10 12 - - 1.4
28/06:30am -3.7 -10.0 -5.4 88 0.4 SSW 19 22 10 12 - - 1.4
28/06:00am -3.6 -9.8 -5.0 90 0.3 SSW 19 20 10 11 - - 1.4
28/05:30am -3.3 -9.1 -4.3 93 0.2 SSW 17 19 9 10 - - 1.4
28/05:00am -3.3 -8.6 -3.6 98 0.0 SSW 15 17 8 9 - - 1.4
28/04:30am -3.6 -9.3 -3.7 99 -0.1 SSW 17 19 9 10 - - 1.4
28/04:00am -2.9 -8.6 -3.4 96 0.0 SSW 17 19 9 10 - - 1.4
28/03:30am -3.1 -8.4 -3.8 95 0.1 SW 15 17 8 9 - - 1.4
28/03:00am -3.2 -8.2 -4.0 94 0.1 SW 13 13 7 7 - - 1.4
28/02:30am -3.5 -7.7 -3.9 97 0.0 SSW 9 11 5 6 - - 1.4
28/02:00am -4.2 -8.5 -5.0 94 0.1 WNW 9 13 5 7 - - 1.4
28/01:30am -3.4 -7.6 -3.9 96 0.0 NW 9 11 5 6 - - 1.4
28/01:00am -3.1 -7.6 -3.6 96 0.0 NW 11 13 6 7 - - 1.4
28/12:30am -3.9 -8.6 -4.6 95 0.1 NW 11 15 6 8 - - 1.4
28/12:00am -4.4 -9.5 -5.2 94 0.1 NW 13 17 7 9 - - 1.4
 
Date/Time
EST
Temp
°C
App
Temp
°C
Dew
Point
Rel
Hum
%
Delta-T
°C
Wind Press
QNH
hPa
Press
MSL
hPa
Rain
since 9 am
mm
Dir
 
Spd
km/h
Gust
km/h
Spd
kts
Gust
kts
27/11:30pm -5.4 -10.2 -5.8 97 -0.1 WNW 11 17 6 9 - - 1.4
27/11:00pm -5.2 -10.3 -5.5 98 -0.1 W 13 15 7 8 - - 1.4
27/10:30pm -5.0 -9.3 -5.3 98 -0.1 WSW 9 9 5 5 - - 1.4
27/10:00pm -3.8 -6.7 -3.9 99 -0.1 NW 2 7 1 4 - - 1.4
27/09:30pm -4.2 -8.4 -4.3 99 -0.2 W 9 13 5 7 - - 1.4
27/09:00pm -2.8 -6.9 -2.9 99 -0.1 NNW 9 11 5 6 - - 1.4
27/08:30pm -3.5 -7.1 -3.6 99 -0.1 W 6 9 3 5 - - 1.4
27/08:00pm -2.9 -7.8 -3.0 99 -0.1 WSW 13 13 7 7 - - 1.4
27/07:30pm -2.6 -7.0 -2.7 99 -0.1 SW 11 13 6 7 - - 1.4
27/07:00pm -2.6 -7.0 -2.7 99 -0.1 SW 11 13 6 7 - - 1.4
27/06:30pm -2.5 -7.7 -2.6 99 -0.1 WSW 15 19 8 10 - - 1.4
27/06:00pm -2.2 -7.3 -2.3 99 -0.1 SW 15 19 8 10 - - 1.4
27/05:30pm -1.9 -6.6 -2.0 99 -0.1 WSW 13 17 7 9 - - 1.4
27/05:00pm -1.7 -6.4 -1.8 99 0.0 SW 13 17 7 9 - - 1.4
27/04:30pm -1.2 -5.5 -1.3 99 0.0 SW 11 20 6 11 - - 1.4
27/04:00pm -0.9 -5.9 -1.0 99 0.0 WSW 15 22 8 12 - - 1.4
27/03:30pm -1.1 -6.5 -1.2 99 0.0 SW 17 22 9 12 - - 1.4
27/03:00pm -0.8 -5.4 -0.9 99 0.0 SW 13 19 7 10 - - 1.4
27/02:30pm -0.7 -6.0 -0.8 99 0.0 SW 17 24 9 13 - - 1.2
27/02:00pm -0.7 -6.0 -0.8 99 0.0 WSW 17 24 9 13 - - 1.0
27/01:30pm -0.8 -7.5 -0.9 99 0.0 W 24 33 13 18 - - 0.6
27/01:00pm -0.8 -6.7 -0.9 99 0.0 W 20 26 11 14 - - 0.6
27/12:30pm -0.9 -6.8 -1.0 99 0.0 WSW 20 30 11 16 - - 0.6
27/12:00pm -1.2 -7.0 -1.3 99 0.0 SW 19 30 10 16 - - 0.6
27/11:30am -1.1 -7.4 -1.2 99 0.0 WSW 22 33 12 18 - - 0.6
27/11:00am -1.3 -7.7 -1.4 99 0.0 WSW 22 32 12 17 - - 0.6
27/10:30am -1.4 -8.2 -1.5 99 0.0 SW 24 37 13 20 - - 0.6
27/10:00am -1.3 -7.3 -1.4 99 0.0 W 20 28 11 15 - - 0.2
27/09:30am -1.5 -7.5 -1.6 99 0.0 WSW 20 32 11 17 - - 0.0
27/09:00am -1.7 -7.7 -1.8 99 0.0 SW 20 30 11 16 - - 20.4
27/08:30am -1.9 -8.7 -2.0 99 -0.1 SW 24 33 13 18 - - 20.2
27/08:00am -2.0 -8.1 -2.1 99 -0.1 SW 20 35 11 19 - - 20.0
27/07:30am -2.0 -8.5 -2.1 99 -0.1 SW 22 35 12 19 - - 20.0
27/07:00am -2.0 -8.1 -2.1 99 -0.1 SW 20 32 11 17 - - 20.0
27/06:30am -2.0 -8.5 -2.1 99 -0.1 SW 22 33 12 18 - - 19.8
27/06:00am -1.9 -8.0 -2.0 99 -0.1 SSW 20 33 11 18 - - 19.8
27/05:30am -1.9 -8.7 -2.0 99 -0.1 SW 24 35 13 19 - - 19.4
27/05:00am -1.9 -8.3 -2.0 99 -0.1 SSW 22 37 12 20 - - 19.4
27/04:30am -1.9 -8.3 -2.0 99 -0.1 SSW 22 32 12 17 - - 18.8
27/04:00am -1.8 -8.2 -1.9 99 -0.1 SW 22 37 12 20 - - 18.4
27/03:30am -1.8 -9.0 -1.9 99 -0.1 SSW 26 43 14 23 - - 18.4
27/03:00am -1.8 -8.6 -1.9 99 -0.1 SSW 24 33 13 18 - - 18.2
27/02:30am -1.8 -9.0 -1.9 99 -0.1 SW 26 41 14 22 - - 18.0
27/02:18am -1.7 -9.3 -1.8 99 0.0 SW 28 46 15 25 - - 18.0
27/02:00am -1.7 -10.0 -1.8 99 0.0 SSW 32 46 17 25 - - 18.0
27/01:53am -1.6 -9.1 -1.7 99 0.0 SSW 28 46 15 25 - - 18.0
27/01:30am -1.3 -8.0 -1.4 99 0.0 SSW 24 41 13 22 - - 18.0
27/01:00am -1.1 -8.2 -1.2 99 0.0 SSW 26 41 14 22 - - 17.6
27/12:30am -1.1 -7.8 -1.2 99 0.0 SSW 24 39 13 21 - - 17.6
27/12:25am -1.1 -8.6 -1.2 99 0.0 SSW 28 46 15 25 - - 17.6
27/12:00am -0.9 -8.0 -1.0 99 0.0 SSW 26 39 14 21 - - 17.4
 
Date/Time
EST
Temp
°C
App
Temp
°C
Dew
Point
Rel
Hum
%
Delta-T
°C
Wind Press
QNH
hPa
Press
MSL
hPa
Rain
since 9 am
mm
Dir
 
Spd
km/h
Gust
km/h
Spd
kts
Gust
kts
26/11:30pm -0.8 -7.1 -0.9 99 0.0 SSW 22 35 12 19 - - 17.0
26/11:00pm -0.9 -7.6 -1.0 99 0.0 SSW 24 39 13 21 - - 17.0
26/10:30pm -0.6 -5.9 -0.7 99 0.0 SW 17 26 9 14 - - 17.0
26/10:00pm -0.6 -6.9 -0.7 99 0.0 SW 22 37 12 20 - - 16.6
26/09:30pm -0.5 -7.1 -0.6 99 0.0 SW 24 41 13 22 - - 16.6
26/09:21pm -0.6 -8.0 -0.7 99 0.0 SW 28 46 15 25 - - 16.6
26/09:00pm -0.5 -6.4 -0.6 99 0.0 SW 20 32 11 17 - - 16.6
26/08:30pm -0.4 -6.3 -0.5 99 0.0 SSW 20 33 11 18 - - 16.4
26/08:00pm -0.3 -6.1 -0.4 99 0.0 SSW 20 35 11 19 - - 16.4
26/07:30pm -0.3 -6.9 -0.4 99 0.0 SSW 24 35 13 19 - - 16.2
26/07:00pm -0.1 -7.1 -0.2 99 0.0 SSW 26 37 14 20 - - 16.2
26/06:30pm -0.1 -7.4 -0.2 99 0.0 SSW 28 46 15 25 - - 16.2
26/06:00pm -0.1 -7.4 -0.2 99 0.0 SSW 28 46 15 25 - - 15.6

Other Formats:

Comma delimited format used in spreadsheet applications
http://www.bom.gov.au/fwo/IDV60801/IDV60801.94894.axf

JavaScript Object Notation format (JSON) in row-major order
http://www.bom.gov.au/fwo/IDV60801/IDV60801.94894.json